Time;durP1;ratioP1;P1;durP2;ratioP2;P2;SDS_P1;SDS_P2;PMS_P1;PMS_P2;Temp;Humidity;BMP_temperature;BMP_pressure;BME280_temperature;BME280_humidity;BME280_pressure;Samples;Min_cycle;Max_cycle;Signal;HPM_P1;HPM_P2
2022/01/25 06:13:38;;;;;;;81.95;36.15;;;4.60;78.60;;;;;;4977937;28;20214;-87
2022/01/25 06:16:04;;;;;;;79.97;35.85;;;4.60;78.00;;;;;;5011179;28;20179;-87
2022/01/25 06:18:29;;;;;;;83.18;34.70;;;4.70;78.00;;;;;;4978457;28;20239;-87
2022/01/25 06:20:57;;;;;;;88.67;34.30;;;4.70;77.80;;;;;;4994166;28;20203;-87
2022/01/25 06:23:23;;;;;;;88.43;35.25;;;4.70;77.80;;;;;;4986538;28;20458;-88
2022/01/25 06:25:49;;;;;;;86.70;35.80;;;4.60;78.00;;;;;;4989725;28;20179;-87
2022/01/25 06:28:16;;;;;;;81.53;33.40;;;4.70;78.10;;;;;;4989155;28;20430;-87
2022/01/25 06:30:42;;;;;;;75.75;32.25;;;4.70;78.10;;;;;;5000528;28;20944;-87
2022/01/25 06:33:08;;;;;;;81.40;33.37;;;4.70;78.10;;;;;;5002923;28;20311;-88
2022/01/25 06:35:34;;;;;;;94.38;39.13;;;4.60;78.00;;;;;;4985256;28;20439;-88
2022/01/25 06:38:00;;;;;;;90.95;38.95;;;4.40;77.90;;;;;;4990628;28;20184;-88
2022/01/25 06:40:27;;;;;;;99.68;39.17;;;4.60;78.10;;;;;;4991208;28;20257;-88
2022/01/25 06:42:54;;;;;;;88.20;36.47;;;4.70;78.20;;;;;;4985372;28;20581;-88
2022/01/25 06:45:22;;;;;;;83.05;34.17;;;4.70;77.70;;;;;;4982913;28;20168;-87
2022/01/25 06:47:50;;;;;;;89.30;35.72;;;4.70;77.40;;;;;;4981116;28;20199;-87
2022/01/25 06:50:23;;;;;;;87.28;35.63;;;4.80;77.20;;;;;;4994684;28;20195;-88
2022/01/25 06:52:50;;;;;;;84.63;33.72;;;4.90;77.20;;;;;;4993199;28;20172;-87
2022/01/25 06:55:17;;;;;;;82.30;32.75;;;4.80;76.90;;;;;;4979572;28;20648;-88
2022/01/25 06:57:44;;;;;;;78.55;30.60;;;4.80;77.00;;;;;;4977283;28;20596;-87
2022/01/25 07:00:17;;;;;;;79.00;33.78;;;4.90;76.90;;;;;;4974069;28;20200;-87
2022/01/25 07:02:43;;;;;;;86.70;35.25;;;5.00;76.90;;;;;;4987534;28;20615;-87
2022/01/25 07:05:10;;;;;;;98.53;34.37;;;5.00;76.80;;;;;;4975395;28;20183;-88
2022/01/25 07:07:37;;;;;;;84.18;34.45;;;5.10;76.80;;;;;;4977909;28;20434;-88
2022/01/25 07:10:04;;;;;;;84.10;35.15;;;5.10;76.70;;;;;;4987723;28;20262;-88
2022/01/25 07:12:29;;;;;;;91.43;35.15;;;5.30;76.30;;;;;;4973679;28;20195;-87
2022/01/25 07:14:55;;;;;;;91.07;35.07;;;5.40;75.90;;;;;;4987792;28;20179;-87
2022/01/25 07:17:21;;;;;;;85.60;35.47;;;5.10;75.40;;;;;;4994009;28;20179;-89
2022/01/25 07:19:48;;;;;;;89.25;36.97;;;5.00;75.60;;;;;;4989372;28;20431;-89
2022/01/25 07:22:13;;;;;;;84.00;33.10;;;5.00;75.70;;;;;;4990982;28;20179;-89
2022/01/25 07:24:40;;;;;;;86.97;36.23;;;5.10;76.00;;;;;;4993441;28;20273;-89
2022/01/25 07:27:06;;;;;;;82.40;36.65;;;5.10;75.70;;;;;;4993635;28;20597;-89
2022/01/25 07:29:32;;;;;;;106.88;39.88;;;5.10;75.70;;;;;;4993985;28;20668;-89
2022/01/25 07:31:59;;;;;;;85.22;31.83;;;5.00;75.90;;;;;;4994096;28;20222;-88
2022/01/25 07:34:26;;;;;;;91.50;35.80;;;4.90;76.00;;;;;;4994165;28;20195;-89
2022/01/25 07:36:52;;;;;;;77.38;31.35;;;4.90;76.20;;;;;;4994508;28;20187;-88
2022/01/25 07:39:19;;;;;;;95.72;35.35;;;4.90;76.30;;;;;;4980781;28;20208;-88
2022/01/25 07:41:46;;;;;;;89.53;33.17;;;4.80;76.30;;;;;;4978648;28;20200;-88
2022/01/25 07:44:13;;;;;;;91.65;36.05;;;4.80;76.50;;;;;;4978666;28;20231;-88
2022/01/25 07:46:39;;;;;;;85.88;35.20;;;4.80;76.70;;;;;;4981054;28;20173;-88
2022/01/25 07:49:06;;;;;;;92.65;36.53;;;4.70;76.80;;;;;;4981268;28;20191;-88
2022/01/25 07:51:32;;;;;;;90.35;35.85;;;4.90;76.90;;;;;;4982331;28;20290;-88
2022/01/25 07:54:01;;;;;;;82.47;34.03;;;5.00;76.80;;;;;;4984464;28;20187;-88
2022/01/25 07:56:27;;;;;;;79.88;35.08;;;5.00;76.50;;;;;;4983857;28;20180;-88
2022/01/25 07:58:52;;;;;;;84.87;34.33;;;5.00;76.30;;;;;;4983574;28;20215;-88
2022/01/25 08:01:19;;;;;;;86.10;33.83;;;5.00;76.40;;;;;;4979716;28;20200;-89
2022/01/25 08:03:45;;;;;;;82.35;32.70;;;5.00;76.50;;;;;;4980306;28;20451;-89
2022/01/25 08:06:12;;;;;;;79.17;35.70;;;5.00;76.40;;;;;;4978326;28;20180;-88
2022/01/25 08:08:40;;;;;;;87.25;34.92;;;5.00;76.30;;;;;;4978047;28;21057;-89
2022/01/25 08:11:06;;;;;;;73.90;30.92;;;5.00;76.50;;;;;;4997775;28;20584;-88
2022/01/25 08:13:31;;;;;;;89.43;38.20;;;5.00;76.80;;;;;;5000153;28;20205;-88
2022/01/25 08:15:57;;;;;;;82.70;31.80;;;5.00;76.90;;;;;;5000445;28;20187;-88
2022/01/25 08:18:23;;;;;;;93.07;36.30;;;5.10;76.90;;;;;;5000932;28;20426;-88
2022/01/25 08:20:49;;;;;;;92.23;36.00;;;5.40;76.40;;;;;;4999603;28;20195;-88
2022/01/25 08:23:14;;;;;;;84.32;35.38;;;5.40;75.90;;;;;;4998661;28;20203;-88
2022/01/25 08:25:40;;;;;;;94.77;40.37;;;5.40;75.60;;;;;;4998102;28;20230;-88
2022/01/25 08:28:06;;;;;;;102.53;38.63;;;5.30;75.50;;;;;;4998751;28;20187;-88
2022/01/25 08:30:32;;;;;;;91.20;36.40;;;5.30;75.30;;;;;;4997012;28;20442;-88
2022/01/25 08:32:58;;;;;;;100.40;39.23;;;5.30;75.50;;;;;;4996531;28;20421;-89
2022/01/25 08:35:24;;;;;;;83.43;36.90;;;5.30;75.40;;;;;;4996385;28;20489;-88
2022/01/25 08:37:50;;;;;;;87.38;35.30;;;5.40;75.30;;;;;;4992037;28;20420;-88
2022/01/25 08:40:16;;;;;;;91.60;34.90;;;4.90;75.40;;;;;;4976470;28;20651;-88
2022/01/25 08:42:42;;;;;;;78.72;33.78;;;5.00;76.00;;;;;;4977704;28;20415;-88
2022/01/25 08:45:13;;;;;;;90.50;34.90;;;5.00;76.20;;;;;;4977058;28;20202;-88
2022/01/25 08:47:40;;;;;;;87.03;35.67;;;5.00;76.40;;;;;;4978182;28;20205;-88
2022/01/25 08:50:08;;;;;;;81.10;33.15;;;5.20;76.60;;;;;;4979401;28;20276;-89
2022/01/25 08:52:35;;;;;;;89.60;37.83;;;5.30;76.50;;;;;;4986187;28;20190;-88
2022/01/25 08:55:01;;;;;;;91.85;34.13;;;5.40;76.20;;;;;;4989360;28;20191;-88
2022/01/25 08:57:27;;;;;;;83.40;34.77;;;5.50;75.70;;;;;;4979450;28;20180;-88
2022/01/25 08:59:53;;;;;;;90.37;35.53;;;5.30;75.30;;;;;;4979465;28;20833;-87
2022/01/25 09:02:19;;;;;;;87.93;33.53;;;5.20;75.10;;;;;;4980559;28;20206;-87
2022/01/25 09:04:44;;;;;;;88.37;36.43;;;5.20;75.10;;;;;;4984289;28;20462;-88
2022/01/25 09:07:10;;;;;;;97.33;36.47;;;5.40;75.20;;;;;;4978119;28;20506;-90
2022/01/25 09:09:36;;;;;;;100.73;37.73;;;5.30;75.20;;;;;;4986482;28;20179;-88
2022/01/25 09:12:02;;;;;;;94.80;35.40;;;5.10;75.40;;;;;;4996228;28;20195;-88
2022/01/25 09:14:28;;;;;;;92.30;34.83;;;5.30;75.70;;;;;;4988509;28;20180;-88
2022/01/25 09:16:53;;;;;;;83.00;35.27;;;5.40;75.40;;;;;;4979208;28;20235;-88
2022/01/25 09:19:19;;;;;;;87.73;36.13;;;5.20;75.10;;;;;;4980997;28;20474;-90
2022/01/25 09:21:45;;;;;;;90.83;35.00;;;5.30;75.40;;;;;;4988240;28;20195;-87
2022/01/25 09:24:11;;;;;;;88.83;33.70;;;5.40;75.30;;;;;;4982925;28;20200;-88
2022/01/25 09:26:37;;;;;;;80.70;31.60;;;5.20;75.10;;;;;;4976815;28;20418;-87
2022/01/25 09:29:04;;;;;;;87.77;35.03;;;5.20;75.40;;;;;;4977076;28;20603;-88
2022/01/25 09:31:31;;;;;;;83.40;34.65;;;5.40;75.50;;;;;;4977363;28;20475;-88
2022/01/25 09:33:57;;;;;;;85.22;33.15;;;5.50;75.00;;;;;;4977193;28;20187;-88
2022/01/25 09:36:24;;;;;;;81.13;32.65;;;5.60;74.50;;;;;;4976664;28;20183;-88
2022/01/25 09:38:55;;;;;;;77.63;32.60;;;5.70;74.20;;;;;;4976997;28;20683;-88
2022/01/25 09:41:21;;;;;;;86.10;34.92;;;5.70;74.10;;;;;;4978728;28;20196;-88
2022/01/25 09:43:47;;;;;;;77.72;33.08;;;5.70;74.00;;;;;;4981155;28;20208;-88
2022/01/25 09:46:13;;;;;;;89.70;34.80;;;5.70;73.80;;;;;;4978417;28;20176;-88
2022/01/25 09:48:39;;;;;;;95.55;36.45;;;5.40;73.60;;;;;;4978038;28;20772;-88
2022/01/25 09:51:08;;;;;;;93.10;33.40;;;5.40;74.10;;;;;;4975871;28;20196;-88
2022/01/25 09:53:33;;;;;;;92.05;37.65;;;5.50;75.00;;;;;;4976018;28;20214;-89
2022/01/25 09:55:59;;;;;;;87.97;35.83;;;5.30;74.40;;;;;;4976950;28;20664;-88
2022/01/25 09:58:27;;;;;;;93.90;35.20;;;5.40;74.80;;;;;;4979978;28;20431;-89
2022/01/25 10:00:57;;;;;;;98.45;38.30;;;5.40;74.50;;;;;;4976311;28;20462;-89
2022/01/25 10:03:39;;;;;;;85.35;32.92;;;5.40;74.40;;;;;;4979742;28;20215;-88
2022/01/25 10:06:19;;;;;;;76.43;31.33;;;5.00;74.70;;;;;;4979107;28;20643;-88
2022/01/25 10:08:53;;;;;;;90.28;33.97;;;5.40;74.70;;;;;;4976734;28;20271;-88
2022/01/25 10:11:22;;;;;;;72.45;30.60;;;5.10;74.20;;;;;;4975817;28;20705;-89
2022/01/25 10:13:51;;;;;;;83.50;32.00;;;5.00;74.80;;;;;;4975693;28;20273;-89
2022/01/25 10:16:32;;;;;;;84.70;33.78;;;5.30;74.80;;;;;;4975911;28;20266;-89
2022/01/25 10:19:02;;;;;;;90.40;33.88;;;5.20;74.40;;;;;;4977177;28;20311;-88
2022/01/25 10:21:48;;;;;;;97.10;33.17;;;5.20;74.80;;;;;;4975955;28;20203;-89
2022/01/25 10:24:28;;;;;;;83.72;31.70;;;5.40;74.90;;;;;;4975266;28;20215;-89
2022/01/25 10:26:57;;;;;;;92.70;32.05;;;5.50;74.60;;;;;;4976658;28;20176;-89
2022/01/25 10:29:23;;;;;;;84.95;33.53;;;5.60;74.30;;;;;;4976422;28;20267;-88
2022/01/25 10:31:56;;;;;;;93.55;34.08;;;5.70;74.10;;;;;;4977899;28;20192;-89
2022/01/25 10:34:28;;;;;;;80.75;30.67;;;5.90;73.90;;;;;;4976278;28;20230;-89
2022/01/25 10:36:54;;;;;;;84.97;32.20;;;5.90;73.40;;;;;;4976106;28;20180;-89
2022/01/25 10:39:25;;;;;;;84.05;32.63;;;6.00;73.20;;;;;;4975621;28;20211;-89
2022/01/25 10:41:51;;;;;;;86.45;32.53;;;6.10;73.30;;;;;;4975198;28;20215;-89
2022/01/25 10:44:17;;;;;;;95.30;35.45;;;6.10;73.00;;;;;;4976620;28;20245;-89
2022/01/25 10:46:43;;;;;;;94.47;32.25;;;6.00;72.60;;;;;;4975832;28;20184;-89
2022/01/25 10:49:09;;;;;;;84.07;32.17;;;6.10;72.50;;;;;;4976118;28;20188;-89
2022/01/25 10:51:38;;;;;;;84.32;34.92;;;6.10;72.20;;;;;;4983312;28;20432;-89
2022/01/25 10:54:09;;;;;;;91.20;36.53;;;6.00;72.40;;;;;;4976613;28;20180;-88
2022/01/25 10:56:44;;;;;;;83.47;33.20;;;5.80;72.00;;;;;;4975207;28;20183;-89
2022/01/25 10:59:13;;;;;;;85.53;32.92;;;6.00;72.20;;;;;;4976040;28;20214;-88
2022/01/25 11:01:45;;;;;;;96.20;35.40;;;5.80;72.40;;;;;;4977068;28;20243;-89
2022/01/25 11:04:14;;;;;;;81.72;33.38;;;5.80;72.40;;;;;;4979569;28;20254;-88
2022/01/25 11:06:41;;;;;;;101.03;36.33;;;5.70;72.60;;;;;;4982096;28;20593;-89
2022/01/25 11:09:10;;;;;;;99.28;35.58;;;5.90;72.70;;;;;;4980559;28;20183;-89
2022/01/25 11:11:41;;;;;;;86.50;35.33;;;5.90;72.50;;;;;;4982162;28;20206;-89
2022/01/25 11:16:53;;;;;;;96.30;34.35;;;5.40;72.90;;;;;;4992172;28;20170;-88
2022/01/25 11:19:21;;;;;;;100.20;37.30;;;5.50;73.80;;;;;;4990107;28;20201;-88
2022/01/25 11:21:48;;;;;;;90.25;32.05;;;5.60;73.60;;;;;;4981926;28;20208;-88
2022/01/25 11:24:16;;;;;;;84.82;35.95;;;5.70;73.30;;;;;;4978560;28;20234;-88
2022/01/25 11:26:44;;;;;;;87.78;32.70;;;5.60;73.40;;;;;;4982196;28;20243;-88
2022/01/25 11:29:10;;;;;;;88.28;34.47;;;5.50;73.70;;;;;;4983874;28;20182;-88
2022/01/25 11:31:40;;;;;;;102.03;36.33;;;5.80;73.80;;;;;;4978558;28;20191;-89
2022/01/25 11:34:11;;;;;;;94.15;33.72;;;5.90;73.30;;;;;;4977990;28;20180;-89
2022/01/25 11:37:08;;;;;;;93.15;36.28;;;5.90;72.90;;;;;;4978835;28;20180;-89
2022/01/25 11:39:38;;;;;;;99.03;33.80;;;5.90;72.60;;;;;;4967054;28;20226;-88
2022/01/25 11:42:10;;;;;;;84.57;32.53;;;5.70;72.70;;;;;;4981655;28;20584;-88
2022/01/25 11:44:50;;;;;;;97.65;35.50;;;5.70;73.20;;;;;;4980371;28;20235;-88
2022/01/25 11:47:18;;;;;;;101.85;39.45;;;6.00;73.10;;;;;;4978613;28;20172;-89
2022/01/25 11:50:11;;;;;;;82.80;32.65;;;5.90;72.50;;;;;;4979034;28;20635;-88
2022/01/25 11:52:50;;;;;;;96.55;34.45;;;5.80;73.00;;;;;;4977713;28;20172;-88
2022/01/25 11:55:18;;;;;;;91.88;33.53;;;5.90;72.50;;;;;;4978164;28;20239;-88
2022/01/25 11:58:03;;;;;;;103.78;37.35;;;5.60;72.80;;;;;;4978517;28;20176;-88
2022/01/25 12:00:56;;;;;;;93.45;35.40;;;5.80;73.20;;;;;;4978342;28;20243;-88
2022/01/25 12:03:24;;;;;;;88.97;33.95;;;5.90;72.90;;;;;;4978006;28;20204;-88
2022/01/25 12:05:56;;;;;;;85.30;34.85;;;5.80;72.30;;;;;;4978204;28;20207;-89
2022/01/25 12:08:37;;;;;;;86.45;35.75;;;5.90;72.50;;;;;;4978336;28;20180;-88
2022/01/25 12:11:23;;;;;;;84.93;34.40;;;5.90;72.20;;;;;;4979259;28;20199;-88
2022/01/25 12:14:09;;;;;;;81.78;33.30;;;5.90;72.30;;;;;;4988531;28;20216;-88
2022/01/25 12:16:43;;;;;;;84.47;34.35;;;6.00;71.90;;;;;;4997523;28;20182;-89
2022/01/25 12:19:10;;;;;;;89.55;32.92;;;6.10;71.70;;;;;;4998724;28;20259;-89
2022/01/25 12:21:50;;;;;;;94.88;34.85;;;6.00;71.60;;;;;;5002455;28;20231;-88
2022/01/25 12:24:24;;;;;;;84.90;32.85;;;5.70;71.90;;;;;;5001525;28;20424;-88
2022/01/25 12:27:30;;;;;;;82.20;31.05;;;5.50;72.70;;;;;;5001764;28;20177;-88
2022/01/25 12:30:11;;;;;;;79.88;30.27;;;5.40;73.20;;;;;;4999947;28;20215;-88
2022/01/25 12:32:50;;;;;;;81.65;32.42;;;5.50;73.20;;;;;;5000615;28;20267;-88
2022/01/25 12:35:31;;;;;;;83.20;32.53;;;5.30;73.40;;;;;;5000150;28;20230;-88
2022/01/25 12:38:00;;;;;;;84.35;31.08;;;5.60;73.20;;;;;;5003781;28;20186;-88
2022/01/25 12:40:26;;;;;;;87.13;33.35;;;5.90;72.80;;;;;;4982687;28;20203;-89
2022/01/25 12:43:07;;;;;;;79.73;33.57;;;6.10;72.20;;;;;;4979399;28;20238;-89
2022/01/25 12:45:49;;;;;;;80.13;32.33;;;6.20;71.80;;;;;;4981864;28;20168;-89
2022/01/25 12:48:30;;;;;;;78.53;30.30;;;6.30;71.40;;;;;;4980507;28;20182;-89
2022/01/25 12:50:59;;;;;;;91.32;33.35;;;6.20;70.80;;;;;;4978033;28;20196;-89
2022/01/25 12:53:28;;;;;;;81.13;30.58;;;6.20;70.70;;;;;;4977924;28;20184;-90
2022/01/25 12:55:58;;;;;;;75.68;30.98;;;6.30;70.70;;;;;;4977637;28;20184;-89
2022/01/25 12:58:29;;;;;;;77.90;32.55;;;6.20;70.50;;;;;;4981110;28;20267;-89
2022/01/25 13:00:57;;;;;;;75.80;30.90;;;6.30;70.60;;;;;;4980297;28;20199;-89
2022/01/25 13:03:30;;;;;;;86.70;36.92;;;6.40;70.60;;;;;;4977706;28;20211;-90
2022/01/25 13:06:20;;;;;;;94.13;34.40;;;6.40;70.30;;;;;;4977711;28;20172;-90
2022/01/25 13:08:55;;;;;;;80.63;32.00;;;6.50;70.10;;;;;;4978432;28;20180;-89
2022/01/25 13:11:29;;;;;;;87.60;32.47;;;6.50;70.10;;;;;;4996389;28;20196;-90
2022/01/25 13:14:14;;;;;;;81.50;32.85;;;6.50;69.90;;;;;;4995543;28;20191;-89
2022/01/25 13:16:44;;;;;;;82.13;33.42;;;6.50;69.80;;;;;;4996837;28;20199;-90
2022/01/25 13:19:12;;;;;;;85.65;32.97;;;6.30;70.60;;;;;;4996922;28;20183;-89
2022/01/25 13:22:01;;;;;;;75.43;31.48;;;6.40;70.10;;;;;;4997541;28;20607;-89
2022/01/25 13:24:31;;;;;;;78.45;31.95;;;6.00;70.40;;;;;;4998058;28;20210;-90
2022/01/25 13:27:02;;;;;;;91.63;37.13;;;5.60;71.30;;;;;;4996806;28;20198;-89
2022/01/25 13:32:33;;;;;;;93.13;33.50;;;6.00;71.80;;;;;;4997589;28;20163;-89
2022/01/25 13:38:05;;;;;;;84.40;33.25;;;6.20;71.00;;;;;;4993630;28;20168;-89
2022/01/25 13:40:48;;;;;;;85.53;33.65;;;6.40;70.50;;;;;;4977395;28;20207;-90
2022/01/25 13:46:00;;;;;;;83.30;32.30;;;6.20;70.40;;;;;;4978002;28;20164;-89
2022/01/25 13:48:27;;;;;;;86.03;34.80;;;6.10;70.60;;;;;;4976243;28;20180;-90
2022/01/25 13:51:06;;;;;;;89.30;34.92;;;6.20;70.80;;;;;;4976457;28;20239;-89
2022/01/25 13:53:32;;;;;;;98.68;35.00;;;6.40;70.70;;;;;;4976287;28;20670;-90
2022/01/25 13:56:00;;;;;;;93.13;38.83;;;6.30;70.50;;;;;;4976456;28;20200;-89
2022/01/25 13:58:31;;;;;;;88.88;33.63;;;6.10;70.50;;;;;;4978294;28;20171;-89
2022/01/25 14:01:00;;;;;;;87.65;33.95;;;6.20;70.80;;;;;;4977218;28;20283;-90
2022/01/25 14:03:30;;;;;;;96.15;34.25;;;6.40;70.70;;;;;;4977744;28;20287;-90
2022/01/25 14:05:57;;;;;;;100.97;36.95;;;6.50;70.20;;;;;;4977053;28;20175;-89
2022/01/25 14:08:38;;;;;;;86.57;35.08;;;6.40;69.80;;;;;;4976805;28;20555;-90
2022/01/25 14:25:39;;;;;;;86.75;34.25;;;6.00;71.50;;;;;;5003979;28;20581;-89
2022/01/25 14:28:23;;;;;;;77.68;31.90;;;6.10;71.50;;;;;;4999959;28;20175;-89
2022/01/25 14:30:53;;;;;;;81.45;32.42;;;6.40;70.70;;;;;;4998743;28;20210;-89
2022/01/25 14:33:28;;;;;;;84.22;31.95;;;6.20;70.40;;;;;;4994763;28;20187;-90
2022/01/25 14:36:08;;;;;;;83.47;33.10;;;6.10;70.40;;;;;;4995412;28;20182;-89
2022/01/25 14:38:37;;;;;;;77.10;29.80;;;6.10;70.60;;;;;;4984623;28;20274;-90
2022/01/25 14:41:14;;;;;;;87.20;36.58;;;6.20;70.50;;;;;;4976560;28;20694;-89
2022/01/25 14:43:51;;;;;;;87.40;33.15;;;6.30;70.40;;;;;;4975555;28;20253;-89
2022/01/25 14:46:25;;;;;;;79.47;31.75;;;6.30;70.30;;;;;;4976060;28;20214;-90
2022/01/25 14:49:16;;;;;;;84.15;33.63;;;6.30;70.10;;;;;;4975680;28;20186;-89
2022/01/25 14:51:51;;;;;;;78.38;29.30;;;6.20;69.90;;;;;;4976017;28;20227;-90
2022/01/25 14:54:22;;;;;;;88.97;34.22;;;6.20;70.20;;;;;;4977004;28;20198;-90
2022/01/25 14:56:53;;;;;;;93.82;33.30;;;6.50;70.10;;;;;;4977873;28;20175;-90
2022/01/25 14:59:27;;;;;;;81.45;31.20;;;6.60;69.70;;;;;;4979119;28;20210;-89
2022/01/25 15:02:03;;;;;;;75.05;30.75;;;6.40;69.50;;;;;;4976449;28;20210;-89
2022/01/25 15:04:41;;;;;;;90.55;32.75;;;6.30;69.70;;;;;;4975198;28;20207;-89
2022/01/25 15:07:16;;;;;;;78.43;30.02;;;6.40;69.60;;;;;;4976280;28;20597;-90
2022/01/25 15:09:56;;;;;;;79.65;32.05;;;6.30;69.60;;;;;;4975988;28;20242;-89
2022/01/25 15:12:26;;;;;;;85.70;34.13;;;6.50;69.80;;;;;;4975735;28;20191;-90
2022/01/25 15:17:26;;;;;;;88.63;35.33;;;6.60;69.40;;;;;;4978165;28;20206;-90
2022/01/25 15:19:52;;;;;;;85.10;34.53;;;6.60;69.40;;;;;;4976492;28;20212;-89
2022/01/25 15:22:20;;;;;;;70.83;29.97;;;6.70;69.20;;;;;;4976874;28;20676;-89
2022/01/25 15:24:48;;;;;;;96.72;33.45;;;6.80;69.60;;;;;;4979548;28;20211;-89
2022/01/25 15:27:14;;;;;;;96.30;34.28;;;6.90;70.10;;;;;;4977253;28;20180;-89
2022/01/25 15:29:41;;;;;;;77.13;30.15;;;6.90;69.40;;;;;;4997554;28;20168;-90
2022/01/25 15:32:08;;;;;;;76.40;32.22;;;7.00;68.90;;;;;;4995952;28;20678;-89
2022/01/25 15:34:39;;;;;;;82.95;33.08;;;6.90;68.80;;;;;;4995815;28;20171;-87
2022/01/25 15:37:08;;;;;;;81.60;32.10;;;6.80;68.50;;;;;;4995457;28;20681;-87
2022/01/25 15:39:34;;;;;;;81.00;31.25;;;6.60;68.30;;;;;;4977671;28;20209;-88
2022/01/25 15:42:01;;;;;;;87.97;30.73;;;6.70;68.60;;;;;;4981495;28;20203;-88
2022/01/25 15:44:41;;;;;;;87.55;33.78;;;6.70;68.80;;;;;;4982514;28;20214;-86
2022/01/25 15:47:09;;;;;;;76.85;29.85;;;6.80;68.70;;;;;;4984004;28;20193;-85
2022/01/25 15:49:35;;;;;;;73.05;32.75;;;6.80;68.50;;;;;;4987200;28;20184;-86
2022/01/25 15:52:01;;;;;;;79.43;31.15;;;6.70;68.40;;;;;;4987614;28;20263;-87
2022/01/25 15:54:27;;;;;;;68.80;30.60;;;6.80;68.50;;;;;;4988636;28;20274;-87
2022/01/25 15:56:54;;;;;;;75.55;31.73;;;6.70;68.50;;;;;;4991843;28;20435;-87
2022/01/25 15:59:21;;;;;;;78.97;28.80;;;6.50;68.90;;;;;;4988422;28;20200;-86
2022/01/25 16:01:57;;;;;;;75.28;30.92;;;6.50;69.20;;;;;;4985553;28;20239;-87
2022/01/25 16:04:25;;;;;;;68.85;28.30;;;6.60;69.40;;;;;;4980470;28;20200;-86
2022/01/25 16:06:51;;;;;;;97.60;32.88;;;6.70;69.10;;;;;;4995743;28;20176;-87
2022/01/25 16:09:18;;;;;;;67.00;29.23;;;6.80;68.60;;;;;;4993667;28;20182;-86
2022/01/25 16:11:44;;;;;;;84.13;31.10;;;6.80;68.50;;;;;;4978228;28;20587;-89
2022/01/25 16:14:17;;;;;;;78.88;29.27;;;6.90;68.50;;;;;;4986197;28;20190;-88
2022/01/25 16:16:44;;;;;;;78.45;29.77;;;6.70;68.30;;;;;;4984796;28;20643;-88
2022/01/25 16:19:10;;;;;;;72.25;28.33;;;6.70;68.60;;;;;;4979179;28;20179;-87
2022/01/25 16:21:36;;;;;;;77.63;29.80;;;6.50;68.70;;;;;;4979493;28;20563;-89
2022/01/25 16:24:15;;;;;;;75.37;31.40;;;6.30;69.30;;;;;;4978718;28;20200;-88
2022/01/25 16:26:40;;;;;;;91.43;32.80;;;6.20;69.80;;;;;;4977822;28;20415;-88
2022/01/25 16:29:06;;;;;;;89.63;31.17;;;6.40;70.00;;;;;;4977246;28;20172;-88
2022/01/25 16:31:33;;;;;;;82.17;30.63;;;6.40;69.80;;;;;;4978658;28;20696;-88
2022/01/25 16:34:01;;;;;;;79.72;33.65;;;6.50;69.80;;;;;;4978113;28;20191;-86
2022/01/25 16:36:28;;;;;;;81.55;31.80;;;6.50;69.80;;;;;;4978971;28;20652;-86
2022/01/25 16:38:54;;;;;;;74.50;31.30;;;6.50;70.10;;;;;;4977280;28;20183;-86
2022/01/25 16:41:20;;;;;;;74.45;32.78;;;6.60;70.20;;;;;;4977833;28;20243;-86
2022/01/25 16:43:47;;;;;;;82.22;30.73;;;6.30;70.10;;;;;;4976835;28;20203;-87
2022/01/25 16:46:15;;;;;;;83.10;32.35;;;6.30;70.20;;;;;;4977032;28;20187;-86
2022/01/25 16:48:41;;;;;;;79.90;30.33;;;6.20;70.20;;;;;;4977921;28;20172;-84
2022/01/25 16:51:07;;;;;;;76.13;31.67;;;6.30;70.40;;;;;;4983648;28;20637;-85
2022/01/25 16:53:32;;;;;;;80.47;31.03;;;6.50;70.00;;;;;;4985908;28;20255;-85
2022/01/25 16:55:59;;;;;;;68.07;29.77;;;6.40;69.80;;;;;;4986480;28;20786;-85
2022/01/25 16:58:24;;;;;;;92.07;32.55;;;6.50;69.80;;;;;;4970913;28;20769;-86
2022/01/25 17:00:51;;;;;;;78.20;30.50;;;6.70;69.80;;;;;;4980749;28;20227;-86
2022/01/25 17:03:17;;;;;;;94.00;32.80;;;6.60;69.40;;;;;;4980168;28;20924;-87
2022/01/25 17:05:45;;;;;;;86.32;29.90;;;6.70;69.40;;;;;;4981251;28;20184;-88
2022/01/25 17:08:11;;;;;;;80.07;31.90;;;6.60;69.20;;;;;;4985593;28;20171;-86
2022/01/25 17:10:37;;;;;;;90.43;34.67;;;6.50;69.40;;;;;;4992111;28;20753;-86
2022/01/25 17:13:03;;;;;;;84.80;32.22;;;6.60;69.50;;;;;;4998375;28;20191;-87
2022/01/25 17:15:29;;;;;;;86.05;32.50;;;6.70;69.30;;;;;;4996199;28;20183;-86
2022/01/25 17:17:57;;;;;;;82.77;33.43;;;6.60;69.00;;;;;;4981825;28;20218;-86
2022/01/25 17:20:25;;;;;;;81.32;32.55;;;6.60;69.00;;;;;;4999198;28;20470;-87
2022/01/25 17:22:52;;;;;;;91.05;33.10;;;6.50;69.00;;;;;;5002471;28;20622;-86
2022/01/25 17:25:17;;;;;;;78.28;32.28;;;6.60;69.20;;;;;;4991307;28;20208;-87
2022/01/25 17:27:43;;;;;;;83.87;31.37;;;6.50;69.40;;;;;;4982519;28;20192;-87
2022/01/25 17:30:10;;;;;;;81.87;32.33;;;6.50;69.50;;;;;;4979886;28;20822;-86
2022/01/25 17:32:38;;;;;;;91.20;33.10;;;6.50;69.80;;;;;;4977183;28;20831;-86
2022/01/25 17:35:04;;;;;;;91.63;32.08;;;6.50;69.50;;;;;;4993495;28;20187;-87
2022/01/25 17:37:30;;;;;;;82.47;32.55;;;6.40;69.80;;;;;;4994135;28;20183;-87
2022/01/25 17:39:59;;;;;;;88.33;34.00;;;6.40;69.90;;;;;;4977695;28;20196;-88
2022/01/25 17:42:25;;;;;;;90.28;33.00;;;6.40;70.00;;;;;;4979759;28;20419;-88
2022/01/25 17:44:51;;;;;;;89.50;34.08;;;6.30;70.40;;;;;;4993266;28;20218;-88
2022/01/25 17:47:18;;;;;;;80.82;31.00;;;6.20;70.80;;;;;;4977666;28;20198;-88
2022/01/25 17:49:45;;;;;;;86.95;32.45;;;5.90;71.30;;;;;;4977907;28;20176;-88
2022/01/25 17:52:12;;;;;;;80.38;33.53;;;5.70;72.00;;;;;;4977049;28;20685;-88
2022/01/25 17:54:38;;;;;;;84.30;33.58;;;5.80;72.50;;;;;;4988780;28;20661;-88
2022/01/25 17:57:05;;;;;;;85.83;32.00;;;5.80;72.70;;;;;;4985956;28;20187;-88
2022/01/25 17:59:31;;;;;;;85.10;32.35;;;5.80;72.70;;;;;;4975570;28;20172;-88
2022/01/25 18:02:00;;;;;;;87.57;35.55;;;6.00;72.70;;;;;;4975743;28;20220;-89
2022/01/25 18:04:30;;;;;;;76.63;32.45;;;6.10;73.10;;;;;;4975052;28;20192;-88
2022/01/25 18:06:56;;;;;;;88.30;33.38;;;6.10;72.00;;;;;;4977298;28;20664;-88
2022/01/25 18:09:22;;;;;;;88.57;33.57;;;6.30;71.90;;;;;;4992017;28;20180;-89
2022/01/25 18:11:49;;;;;;;81.95;32.55;;;6.40;71.60;;;;;;4981889;28;20459;-89
2022/01/25 18:14:16;;;;;;;105.47;35.88;;;6.00;71.40;;;;;;4981718;28;20183;-90
2022/01/25 18:16:42;;;;;;;92.80;32.38;;;6.00;71.80;;;;;;4994982;28;20179;-89
2022/01/25 18:19:09;;;;;;;84.95;32.53;;;6.00;72.00;;;;;;4997541;28;20560;-87
2022/01/25 18:21:41;;;;;;;91.18;33.20;;;6.00;72.10;;;;;;4996035;28;20226;-91
2022/01/25 18:24:12;;;;;;;77.45;33.53;;;6.10;72.10;;;;;;4956366;29;20292;-90
2022/01/25 18:29:04;;;;;;;88.33;35.17;;;5.90;71.80;;;;;;4978314;28;20179;-88
2022/01/25 18:31:30;;;;;;;86.25;33.22;;;6.00;72.20;;;;;;4974013;28;20239;-90
2022/01/25 18:33:57;;;;;;;81.03;33.20;;;5.90;72.10;;;;;;4974895;28;20190;-88
2022/01/25 18:36:22;;;;;;;102.10;33.97;;;5.90;72.30;;;;;;4971975;28;20951;-90
2022/01/25 18:38:48;;;;;;;84.77;32.17;;;5.90;72.40;;;;;;4978285;28;20190;-89
2022/01/25 18:41:15;;;;;;;83.28;33.60;;;5.90;72.30;;;;;;4991312;28;20454;-89
2022/01/25 18:43:41;;;;;;;93.93;36.88;;;5.90;72.40;;;;;;4976618;28;20203;-88
2022/01/25 18:46:07;;;;;;;100.03;36.20;;;5.80;72.30;;;;;;4981444;28;20620;-87
2022/01/25 18:48:35;;;;;;;102.77;35.83;;;6.00;72.50;;;;;;4982454;28;20734;-87
2022/01/25 18:51:04;;;;;;;94.45;37.80;;;6.00;72.30;;;;;;4981155;28;20195;-87
2022/01/25 18:53:30;;;;;;;94.38;37.15;;;6.00;72.20;;;;;;4982515;28;20247;-87
2022/01/25 18:55:57;;;;;;;99.20;36.35;;;6.00;72.10;;;;;;5001485;28;20187;-87
2022/01/25 18:58:26;;;;;;;95.72;33.35;;;5.90;72.00;;;;;;4999742;28;20187;-86
2022/01/25 19:00:52;;;;;;;93.32;34.92;;;5.90;72.10;;;;;;4994286;28;20195;-87
2022/01/25 19:03:18;;;;;;;98.28;35.17;;;6.10;71.40;;;;;;4975367;28;20194;-87
2022/01/25 19:05:51;;;;;;;122.22;37.15;;;5.70;71.40;;;;;;4976214;28;20171;-87
2022/01/25 19:08:22;;;;;;;105.63;37.95;;;5.60;72.00;;;;;;4975390;28;20660;-87
2022/01/25 19:10:48;;;;;;;115.80;38.17;;;5.60;72.40;;;;;;4988349;28;20257;-87
2022/01/25 19:13:21;;;;;;;91.53;35.80;;;5.80;72.70;;;;;;4994154;28;20210;-87
2022/01/25 19:15:47;;;;;;;112.97;39.03;;;5.90;72.40;;;;;;4984882;28;20419;-88
2022/01/25 19:18:13;;;;;;;92.90;36.53;;;5.90;72.40;;;;;;4985432;28;20218;-87
2022/01/25 19:20:42;;;;;;;101.50;36.93;;;6.00;73.00;;;;;;4976815;28;20245;-87
2022/01/25 19:23:08;;;;;;;97.80;39.70;;;6.00;72.20;;;;;;4980788;28;20175;-91
2022/01/25 19:25:33;;;;;;;110.33;39.70;;;6.30;71.80;;;;;;4999170;28;20618;-89
2022/01/25 19:27:59;;;;;;;108.57;37.00;;;6.40;71.40;;;;;;4998609;28;20414;-89
2022/01/25 19:30:25;;;;;;;109.28;40.20;;;6.30;71.30;;;;;;4987888;28;20202;-89